createdAt,value
2018-04-10T00:01:14.846Z,59.60
2018-04-10T00:03:41.114Z,59.60
2018-04-10T00:06:08.170Z,59.90
2018-04-10T00:08:34.465Z,59.90
2018-04-10T00:11:00.729Z,60.50
2018-04-10T00:13:27.041Z,60.10
2018-04-10T00:15:54.053Z,60.40
2018-04-10T00:18:20.320Z,60.40
2018-04-10T00:20:47.365Z,60.30
2018-04-10T00:23:14.430Z,60.80
2018-04-10T00:25:40.706Z,60.70
2018-04-10T00:28:06.953Z,60.70
2018-04-10T00:30:33.189Z,61.20
2018-04-10T00:32:59.449Z,61.40
2018-04-10T00:35:25.745Z,61.70
2018-04-10T00:37:52.013Z,62.20
2018-04-10T00:40:18.278Z,62.10
2018-04-10T00:42:44.530Z,61.80
2018-04-10T00:45:10.834Z,61.90
2018-04-10T00:47:37.113Z,62.20
2018-04-10T00:50:03.368Z,62.30
2018-04-10T00:52:29.611Z,62.20
2018-04-10T00:54:55.956Z,62.20
2018-04-10T00:57:22.153Z,61.70
2018-04-10T00:59:48.460Z,61.80
2018-04-10T01:02:14.788Z,61.90
2018-04-10T01:04:41.081Z,62.10
2018-04-10T01:07:07.349Z,62.50
2018-04-10T01:09:33.631Z,62.70
2018-04-10T01:11:59.952Z,63.20
2018-04-10T01:14:26.236Z,63.10
2018-04-10T01:16:52.518Z,63.20
2018-04-10T01:19:18.841Z,63.00
2018-04-10T01:21:45.096Z,63.10
2018-04-10T01:24:11.380Z,63.50
2018-04-10T01:26:37.648Z,63.50
2018-04-10T01:29:03.936Z,63.70
2018-04-10T01:31:30.193Z,63.00
2018-04-10T01:33:56.528Z,63.00
2018-04-10T01:36:22.792Z,63.30
2018-04-10T01:38:49.802Z,63.10
2018-04-10T01:41:16.071Z,63.00
2018-04-10T01:43:42.352Z,63.10
2018-04-10T01:46:08.644Z,63.40
2018-04-10T01:48:34.933Z,64.50
2018-04-10T01:51:01.177Z,64.90
2018-04-10T01:53:28.178Z,63.60
2018-04-10T01:55:54.466Z,63.60
2018-04-10T01:58:20.709Z,63.40
2018-04-10T02:00:47.037Z,64.10
2018-04-10T02:03:13.320Z,64.40
2018-04-10T02:05:39.606Z,63.60
2018-04-10T02:08:05.881Z,63.90
2018-04-10T02:10:32.213Z,65.00
2018-04-10T02:12:58.493Z,64.70
2018-04-10T02:15:24.769Z,64.70
2018-04-10T02:17:51.073Z,65.10
2018-04-10T02:20:17.326Z,64.90
2018-04-10T02:22:43.777Z,65.40
2018-04-10T02:25:10.422Z,65.30
2018-04-10T02:27:36.898Z,66.10
2018-04-10T02:30:04.122Z,65.60
2018-04-10T02:32:30.618Z,65.60
2018-04-10T02:34:57.052Z,65.50
2018-04-10T02:37:23.586Z,65.90
2018-04-10T02:39:50.126Z,65.80
2018-04-10T02:42:16.705Z,65.40
2018-04-10T02:44:43.195Z,65.30
2018-04-10T02:47:09.620Z,65.40
2018-04-10T02:49:36.134Z,65.00
2018-04-10T02:52:03.425Z,65.70
2018-04-10T02:54:29.976Z,65.70
2018-04-10T02:56:56.429Z,65.70
2018-04-10T02:59:23.695Z,65.80
2018-04-10T03:01:50.226Z,65.70
2018-04-10T03:04:16.695Z,65.70
2018-04-10T03:06:43.143Z,65.70
2018-04-10T03:09:09.707Z,65.70
2018-04-10T03:11:36.222Z,65.40
2018-04-10T03:14:02.575Z,65.40
2018-04-10T03:16:28.835Z,65.80
2018-04-10T03:18:55.094Z,65.20
2018-04-10T03:21:21.378Z,65.00
2018-04-10T03:23:47.710Z,64.90
2018-04-10T03:26:13.991Z,64.90
2018-04-10T03:28:40.225Z,64.80
2018-04-10T03:31:07.230Z,64.40
2018-04-10T03:33:33.461Z,64.30
2018-04-10T03:35:59.703Z,64.10
2018-04-10T03:38:25.982Z,63.50
2018-04-10T03:40:52.236Z,64.30
2018-04-10T03:43:18.477Z,64.60
2018-04-10T03:45:44.726Z,63.60
2018-04-10T03:48:10.994Z,64.00
2018-04-10T03:50:37.247Z,64.90
2018-04-10T03:53:03.493Z,64.00
2018-04-10T03:55:29.790Z,64.50
2018-04-10T03:57:56.007Z,63.80
2018-04-10T04:00:22.263Z,63.80
2018-04-10T04:02:48.524Z,64.20
2018-04-10T04:05:14.834Z,64.00
2018-04-10T04:07:41.109Z,63.90
2018-04-10T04:10:07.339Z,64.20
2018-04-10T04:12:34.382Z,64.60
2018-04-10T04:15:00.660Z,64.60
2018-04-10T04:17:32.967Z,64.60
2018-04-10T04:20:12.443Z,64.70
2018-04-10T04:22:38.750Z,64.60
2018-04-10T04:25:05.880Z,65.30
2018-04-10T04:27:32.931Z,65.30
2018-04-10T04:29:59.215Z,65.30
2018-04-10T04:32:25.471Z,65.10
2018-04-10T04:34:51.789Z,65.10
2018-04-10T04:37:18.055Z,65.10
2018-04-10T04:39:44.321Z,65.10
2018-04-10T04:42:10.685Z,65.20
2018-04-10T04:44:37.026Z,65.30
2018-04-10T04:47:03.293Z,65.50
2018-04-10T04:49:30.297Z,66.40
2018-04-10T04:51:56.570Z,66.40
2018-04-10T04:54:22.828Z,66.70
2018-04-10T04:56:49.105Z,67.20
2018-04-10T04:59:16.093Z,67.90
2018-04-10T05:01:42.402Z,67.60
2018-04-10T05:04:08.704Z,68.60
2018-04-10T05:06:35.741Z,69.60
2018-04-10T05:09:02.069Z,69.60
2018-04-10T05:11:28.317Z,70.10
2018-04-10T05:13:58.600Z,72.00
2018-04-10T05:16:24.856Z,71.90
2018-04-10T05:18:51.917Z,72.10
2018-04-10T05:21:18.924Z,74.00
2018-04-10T05:23:45.169Z,73.90
2018-04-10T05:26:11.468Z,74.80
2018-04-10T05:28:37.708Z,74.70
2018-04-10T05:31:04.006Z,74.50
2018-04-10T05:33:30.286Z,73.50
2018-04-10T05:35:56.681Z,73.90
2018-04-10T05:38:23.057Z,73.40
2018-04-10T05:40:49.471Z,72.80
2018-04-10T05:43:15.783Z,71.10
2018-04-10T05:45:42.027Z,70.60
2018-04-10T05:48:08.308Z,71.10
2018-04-10T05:50:34.588Z,70.70
2018-04-10T05:53:00.862Z,71.80
2018-04-10T05:55:27.889Z,70.40
2018-04-10T05:57:54.944Z,69.60
2018-04-10T06:00:21.972Z,69.60
2018-04-10T06:02:48.263Z,69.50
2018-04-10T06:05:14.585Z,69.40
2018-04-10T06:07:40.845Z,69.20
2018-04-10T06:10:07.119Z,70.10
2018-04-10T06:12:33.444Z,69.80
2018-04-10T06:15:00.509Z,70.10
2018-04-10T06:17:26.792Z,70.10
2018-04-10T06:19:53.068Z,70.20
2018-04-10T06:22:19.356Z,70.00
2018-04-10T06:24:45.673Z,69.20
2018-04-10T06:27:11.920Z,70.00
2018-04-10T06:29:38.217Z,70.00
2018-04-10T06:32:04.530Z,72.10
2018-04-10T06:34:30.798Z,70.60
2018-04-10T06:36:57.173Z,70.80
2018-04-10T06:39:23.469Z,70.50
2018-04-10T06:41:49.753Z,70.50
2018-04-10T06:44:16.030Z,70.80
2018-04-10T06:46:44.143Z,71.40
2018-04-10T06:49:10.434Z,71.30
2018-04-10T06:51:37.530Z,71.70
2018-04-10T06:54:03.886Z,71.70
2018-04-10T06:56:30.166Z,71.80
2018-04-10T06:58:56.416Z,71.50
2018-04-10T07:01:22.709Z,72.00
2018-04-10T07:03:49.749Z,72.00
2018-04-10T07:06:16.776Z,71.10
2018-04-10T07:08:43.042Z,71.00
2018-04-10T07:11:09.402Z,71.00
2018-04-10T07:13:35.642Z,70.70
2018-04-10T07:16:01.918Z,70.60
2018-04-10T07:18:28.250Z,70.50
2018-04-10T07:20:55.307Z,71.00
2018-04-10T07:23:22.285Z,70.70
2018-04-10T07:25:48.577Z,70.70
2018-04-10T07:28:14.844Z,70.80
2018-04-10T07:30:41.110Z,70.80
2018-04-10T07:33:07.394Z,71.70
2018-04-10T07:35:33.676Z,70.90
2018-04-10T07:38:00.701Z,70.40
2018-04-10T07:40:26.996Z,70.10
2018-04-10T07:42:53.411Z,70.50
2018-04-10T07:45:19.730Z,69.40
2018-04-10T07:47:46.741Z,69.20
2018-04-10T07:50:13.069Z,69.20
2018-04-10T07:52:39.409Z,70.30
2018-04-10T07:55:05.764Z,72.70
2018-04-10T07:57:32.741Z,70.60
2018-04-10T07:59:58.960Z,70.40
2018-04-10T08:02:25.248Z,70.30
2018-04-10T08:04:53.393Z,70.40
2018-04-10T08:07:19.664Z,70.20
2018-04-10T08:09:46.645Z,72.60
2018-04-10T08:12:12.906Z,72.60
2018-04-10T08:14:39.189Z,69.20
2018-04-10T08:17:05.490Z,68.60
2018-04-10T08:19:37.799Z,68.70
2018-04-10T08:22:10.160Z,70.80
2018-04-10T08:24:42.528Z,68.90
2018-04-10T08:27:15.125Z,68.50
2018-04-10T08:29:47.576Z,68.40
2018-04-10T08:32:20.024Z,68.90
2018-04-10T08:34:52.416Z,69.60
2018-04-10T08:37:24.739Z,69.40
2018-04-10T08:39:57.217Z,69.10
2018-04-10T08:42:29.569Z,68.30
2018-04-10T08:45:02.708Z,68.50
2018-04-10T08:47:34.992Z,68.50
2018-04-10T08:50:07.681Z,69.10
2018-04-10T08:52:40.327Z,68.70
2018-04-10T08:55:12.670Z,68.20
2018-04-10T08:57:45.769Z,68.50
2018-04-10T09:00:18.899Z,66.80
2018-04-10T09:02:51.407Z,66.70
2018-04-10T09:05:23.686Z,66.10
2018-04-10T09:07:56.043Z,68.20
2018-04-10T09:10:29.167Z,65.80
2018-04-10T09:13:02.277Z,67.00
2018-04-10T09:15:34.648Z,66.80
2018-04-10T09:18:07.112Z,66.00
2018-04-10T09:20:39.531Z,64.30
2018-04-10T09:23:11.883Z,63.80
2018-04-10T09:25:44.222Z,63.20
2018-04-10T09:28:16.760Z,62.30
2018-04-10T09:30:49.209Z,63.00
2018-04-10T09:33:21.626Z,63.70
2018-04-10T09:35:54.081Z,63.70
2018-04-10T09:38:26.413Z,62.60
2018-04-10T09:40:58.778Z,61.70
2018-04-10T09:43:31.891Z,59.80
2018-04-10T09:46:04.390Z,59.60
2018-04-10T09:48:36.718Z,60.00
2018-04-10T09:51:09.164Z,60.30
2018-04-10T09:53:41.494Z,60.10
2018-04-10T09:56:14.752Z,60.40
2018-04-10T09:58:46.995Z,60.40
2018-04-10T10:01:20.914Z,59.80
2018-04-10T10:03:53.396Z,60.70
2018-04-10T10:06:25.809Z,60.20
2018-04-10T10:08:58.185Z,59.90
2018-04-10T10:11:30.461Z,60.40
2018-04-10T10:14:02.931Z,61.40
2018-04-10T10:16:35.272Z,60.30
2018-04-10T10:19:07.736Z,60.90
2018-04-10T10:21:40.157Z,58.50
2018-04-10T10:24:13.182Z,57.90
2018-04-10T10:26:45.464Z,57.80
2018-04-10T10:29:17.841Z,58.60
2018-04-10T10:31:51.068Z,56.80
2018-04-10T10:34:23.496Z,56.70
2018-04-10T10:36:56.592Z,56.60
2018-04-10T10:39:29.019Z,56.60
2018-04-10T10:42:01.300Z,56.90
2018-04-10T10:44:33.644Z,56.40
2018-04-10T10:47:05.962Z,56.30
2018-04-10T10:49:38.349Z,56.30
2018-04-10T10:52:10.780Z,56.60
2018-04-10T10:54:43.128Z,56.80
2018-04-10T10:57:16.278Z,56.30
2018-04-10T10:59:49.409Z,56.60
2018-04-10T11:02:22.654Z,55.80
2018-04-10T11:04:55.042Z,55.80
2018-04-10T11:07:27.457Z,56.10
2018-04-10T11:09:59.790Z,56.40
2018-04-10T11:12:32.130Z,55.50
2018-04-10T11:15:04.533Z,55.50
2018-04-10T11:17:36.816Z,56.40
2018-04-10T11:20:11.337Z,56.90
2018-04-10T11:22:43.788Z,57.60
2018-04-10T11:25:16.247Z,57.50
2018-04-10T11:27:48.485Z,57.70
2018-04-10T11:30:20.879Z,58.50
2018-04-10T11:32:53.264Z,59.50
2018-04-10T11:35:25.690Z,59.40
2018-04-10T11:37:58.799Z,61.20
2018-04-10T11:40:31.236Z,60.70
2018-04-10T11:43:03.701Z,59.40
2018-04-10T11:45:36.040Z,59.90
2018-04-10T11:48:08.319Z,59.30
2018-04-10T11:50:40.723Z,58.30
2018-04-10T11:53:13.875Z,58.60
2018-04-10T11:55:46.193Z,58.60
2018-04-10T11:58:19.459Z,57.90
2018-04-10T12:00:51.873Z,57.80
2018-04-10T12:03:25.021Z,55.00
2018-04-10T12:05:57.417Z,54.90
2018-04-10T12:08:29.762Z,54.80
2018-04-10T12:11:02.123Z,55.30
2018-04-10T12:13:34.550Z,56.50
2018-04-10T12:16:07.745Z,56.20
2018-04-10T12:18:40.124Z,56.00
2018-04-10T12:21:12.474Z,56.50
2018-04-10T12:23:45.490Z,56.90
2018-04-10T12:26:17.870Z,56.80
2018-04-10T12:28:50.275Z,57.90
2018-04-10T12:31:23.497Z,57.10
2018-04-10T12:33:55.931Z,57.10
2018-04-10T12:36:28.422Z,57.00
2018-04-10T12:39:00.788Z,58.00
2018-04-10T12:41:33.142Z,58.00
2018-04-10T12:44:05.554Z,56.60
2018-04-10T12:46:38.702Z,56.40
2018-04-10T12:49:11.090Z,56.30
2018-04-10T12:51:43.493Z,56.80
2018-04-10T12:54:15.882Z,57.10
2018-04-10T12:56:48.089Z,57.00
2018-04-10T12:59:20.563Z,56.50
2018-04-10T13:01:52.942Z,56.60
2018-04-10T13:04:25.579Z,56.70
2018-04-10T13:06:57.906Z,57.00
2018-04-10T13:09:30.304Z,56.10
2018-04-10T13:12:03.497Z,54.00
2018-04-10T13:14:36.549Z,53.70
2018-04-10T13:17:09.239Z,53.70
2018-04-10T13:19:41.766Z,57.00
2018-04-10T13:22:14.063Z,63.90
2018-04-10T13:24:46.545Z,65.90
2018-04-10T13:27:19.041Z,65.40
2018-04-10T13:29:51.405Z,66.00
2018-04-10T13:32:23.878Z,68.20
2018-04-10T13:34:56.176Z,67.80
2018-04-10T13:37:28.688Z,68.50
2018-04-10T13:40:01.097Z,69.30
2018-04-10T13:42:34.411Z,70.30
2018-04-10T13:45:07.478Z,69.60
2018-04-10T13:47:40.598Z,70.90
2018-04-10T13:50:13.202Z,70.80
2018-04-10T13:52:45.817Z,70.50
2018-04-10T13:55:18.246Z,70.50
2018-04-10T13:57:50.678Z,70.90
2018-04-10T14:00:23.030Z,71.40
2018-04-10T14:02:55.622Z,70.30
2018-04-10T14:05:27.986Z,71.00
2018-04-10T14:08:00.416Z,70.80
2018-04-10T14:10:32.997Z,70.80
2018-04-10T14:13:05.570Z,71.20
2018-04-10T14:15:38.038Z,69.20
2018-04-10T14:18:10.388Z,67.80
2018-04-10T14:20:42.810Z,67.30
2018-04-10T14:23:15.341Z,65.80
2018-04-10T14:25:47.620Z,64.70
2018-04-10T14:28:20.116Z,65.00
2018-04-10T14:30:52.673Z,66.40
2018-04-10T14:33:25.088Z,66.20
2018-04-10T14:35:57.468Z,66.70
2018-04-10T14:38:29.815Z,67.10
2018-04-10T14:41:02.298Z,66.40
2018-04-10T14:43:34.896Z,65.90
2018-04-10T14:46:07.510Z,65.30
2018-04-10T14:48:39.914Z,65.00
2018-04-10T14:51:12.319Z,66.60
2018-04-10T14:53:44.707Z,67.00
2018-04-10T14:56:17.155Z,68.60
2018-04-10T14:58:49.506Z,69.70
2018-04-10T15:01:22.088Z,69.70
2018-04-10T15:03:54.594Z,70.40
2018-04-10T15:06:27.046Z,70.50
2018-04-10T15:08:59.410Z,69.30
2018-04-10T15:11:31.766Z,69.80
2018-04-10T15:14:04.470Z,70.70
2018-04-10T15:16:36.838Z,71.30
2018-04-10T15:19:10.010Z,68.90
2018-04-10T15:21:42.393Z,68.80
2018-04-10T15:24:14.733Z,69.50
2018-04-10T15:26:47.166Z,70.10
2018-04-10T15:29:19.778Z,69.00
2018-04-10T15:31:52.199Z,68.50
2018-04-10T15:34:24.653Z,68.60
2018-04-10T15:36:57.246Z,67.70
2018-04-10T15:39:29.542Z,67.90
2018-04-10T15:42:01.975Z,68.60
2018-04-10T15:44:41.585Z,68.50
2018-04-10T15:47:13.984Z,67.80
2018-04-10T15:49:47.159Z,68.80
2018-04-10T15:52:20.498Z,69.60
2018-04-10T15:54:53.148Z,69.40
2018-04-10T15:57:25.756Z,70.10
2018-04-10T15:59:58.367Z,68.50
2018-04-10T16:02:31.008Z,69.00
2018-04-10T16:05:03.635Z,70.10
2018-04-10T16:07:36.277Z,70.10
2018-04-10T16:10:08.972Z,70.20
2018-04-10T16:12:41.606Z,70.40
2018-04-10T16:15:14.164Z,70.70
2018-04-10T16:17:46.872Z,69.70
2018-04-10T16:20:19.524Z,69.60
2018-04-10T16:22:51.991Z,69.60
2018-04-10T16:25:24.429Z,71.00
2018-04-10T16:27:56.996Z,70.30
2018-04-10T16:30:30.354Z,70.20
2018-04-10T16:33:02.740Z,70.10
2018-04-10T16:35:35.198Z,70.10
2018-04-10T16:38:07.609Z,69.20
2018-04-10T16:40:40.137Z,70.80
2018-04-10T16:43:12.468Z,72.00
2018-04-10T16:45:45.640Z,71.80
2018-04-10T16:48:18.903Z,72.40
2018-04-10T16:50:51.345Z,72.20
2018-04-10T16:53:23.749Z,71.50
2018-04-10T16:55:56.069Z,70.20
2018-04-10T16:58:28.490Z,69.40
2018-04-10T17:01:01.567Z,71.10
2018-04-10T17:03:33.978Z,71.00
2018-04-10T17:06:06.354Z,72.00
2018-04-10T17:08:39.495Z,73.40
2018-04-10T17:11:13.105Z,73.40
2018-04-10T17:13:46.409Z,73.10
2018-04-10T17:16:19.529Z,72.90
2018-04-10T17:18:51.947Z,72.90
2018-04-10T17:21:24.344Z,72.40
2018-04-10T17:23:56.694Z,71.40
2018-04-10T17:26:29.946Z,70.30
2018-04-10T17:29:02.351Z,70.30
2018-04-10T17:31:35.119Z,72.10
2018-04-10T17:34:07.645Z,72.50
2018-04-10T17:36:41.072Z,72.30
2018-04-10T17:39:14.190Z,71.40
2018-04-10T17:41:47.304Z,71.00
2018-04-10T17:44:19.637Z,71.00
2018-04-10T17:46:52.277Z,71.20
2018-04-10T17:49:24.656Z,70.80
2018-04-10T17:51:57.031Z,70.80
2018-04-10T17:54:29.369Z,70.00
2018-04-10T17:57:01.700Z,69.80
2018-04-10T17:59:34.928Z,71.60
2018-04-10T18:02:07.517Z,71.60
2018-04-10T18:04:39.883Z,71.10
2018-04-10T18:07:12.304Z,70.90
2018-04-10T18:09:44.915Z,71.20
2018-04-10T18:12:17.335Z,71.50
2018-04-10T18:14:49.999Z,71.50
2018-04-10T18:17:22.320Z,70.70
2018-04-10T18:19:54.669Z,70.70
2018-04-10T18:22:27.020Z,71.10
2018-04-10T18:24:59.396Z,71.40
2018-04-10T18:27:31.889Z,71.50
2018-04-10T18:30:04.477Z,71.70
2018-04-10T18:32:36.793Z,71.10
2018-04-10T18:35:09.325Z,70.70
2018-04-10T18:37:41.664Z,70.70
2018-04-10T18:40:14.056Z,70.80
2018-04-10T18:42:46.617Z,71.20
2018-04-10T18:45:18.998Z,71.20
2018-04-10T18:47:52.145Z,70.90
2018-04-10T18:50:24.600Z,70.90
2018-04-10T18:52:57.206Z,70.80
2018-04-10T18:55:29.591Z,70.60
2018-04-10T18:58:02.142Z,70.10
2018-04-10T19:00:34.553Z,70.40
2018-04-10T19:03:07.019Z,69.80
2018-04-10T19:05:39.490Z,69.50
2018-04-10T19:08:12.074Z,69.40
2018-04-10T19:10:44.761Z,69.30
2018-04-10T19:13:17.237Z,69.20
2018-04-10T19:15:49.653Z,68.80
2018-04-10T19:18:22.177Z,69.40
2018-04-10T19:20:55.454Z,69.20
2018-04-10T19:23:28.476Z,69.20
2018-04-10T19:26:01.112Z,69.10
2018-04-10T19:28:34.729Z,69.10
2018-04-10T19:31:07.108Z,69.40
2018-04-10T19:33:39.719Z,69.20
2018-04-10T19:36:12.349Z,68.90
2018-04-10T19:38:44.764Z,69.20
2018-04-10T19:41:17.936Z,69.10
2018-04-10T19:43:50.408Z,69.10
2018-04-10T19:46:23.676Z,69.30
2018-04-10T19:48:56.059Z,69.20
2018-04-10T19:51:28.696Z,69.10
2018-04-10T19:54:01.587Z,69.40
2018-04-10T19:56:34.208Z,68.60
2018-04-10T19:59:07.005Z,69.10
2018-04-10T20:01:40.502Z,69.70
2018-04-10T20:04:13.024Z,69.70
2018-04-10T20:06:45.764Z,69.60
2018-04-10T20:09:18.606Z,69.50
2018-04-10T20:11:51.344Z,69.30
2018-04-10T20:14:23.919Z,69.00
2018-04-10T20:16:56.591Z,69.30
2018-04-10T20:19:29.276Z,69.40
2018-04-10T20:22:01.825Z,69.40
2018-04-10T20:24:34.597Z,69.60
2018-04-10T20:27:07.227Z,69.40
2018-04-10T20:29:39.872Z,70.20
2018-04-10T20:32:12.443Z,69.50
2018-04-10T20:34:45.115Z,69.90
2018-04-10T20:37:17.867Z,69.70
2018-04-10T20:39:50.496Z,70.00
2018-04-10T20:42:23.149Z,69.30
2018-04-10T20:44:55.831Z,68.80
2018-04-10T20:47:28.468Z,68.70
2018-04-10T20:50:01.199Z,68.60
2018-04-10T20:52:33.853Z,69.30
2018-04-10T20:55:06.278Z,69.30
2018-04-10T20:57:38.943Z,69.30
2018-04-10T21:00:12.192Z,69.60
2018-04-10T21:02:44.832Z,69.50
2018-04-10T21:05:17.453Z,69.40
2018-04-10T21:07:51.797Z,69.30
2018-04-10T21:10:24.364Z,69.30
2018-04-10T21:12:56.672Z,70.00
2018-04-10T21:15:29.077Z,70.20
2018-04-10T21:18:01.465Z,70.10
2018-04-10T21:20:34.001Z,70.00
2018-04-10T21:23:07.186Z,70.20
2018-04-10T21:25:39.748Z,70.20
2018-04-10T21:28:12.049Z,70.20
2018-04-10T21:30:44.525Z,70.40
2018-04-10T21:33:16.869Z,69.90
2018-04-10T21:35:49.494Z,70.10
2018-04-10T21:38:21.959Z,70.20
2018-04-10T21:40:54.645Z,70.70
2018-04-10T21:43:30.005Z,70.10
2018-04-10T21:46:02.402Z,69.80
2018-04-10T21:48:34.848Z,69.70
2018-04-10T21:51:08.173Z,69.80
2018-04-10T21:53:40.520Z,69.70
2018-04-10T21:56:12.861Z,69.80
2018-04-10T21:58:46.018Z,69.40
2018-04-10T22:01:18.445Z,69.20
2018-04-10T22:03:50.997Z,69.60
2018-04-10T22:06:23.324Z,70.00
2018-04-10T22:08:55.809Z,69.90
2018-04-10T22:11:28.287Z,69.50
2018-04-10T22:14:01.550Z,69.40
2018-04-10T22:16:33.886Z,69.40
2018-04-10T22:19:06.329Z,69.60
2018-04-10T22:21:38.843Z,69.30
2018-04-10T22:24:12.026Z,69.60
2018-04-10T22:26:45.377Z,69.50
2018-04-10T22:29:17.870Z,69.50
2018-04-10T22:31:50.425Z,69.80
2018-04-10T22:34:23.567Z,69.50
2018-04-10T22:36:56.894Z,69.50
2018-04-10T22:39:29.290Z,69.40
2018-04-10T22:42:01.898Z,69.30
2018-04-10T22:44:34.949Z,70.00
2018-04-10T22:47:08.192Z,70.00
2018-04-10T22:49:40.786Z,69.80
2018-04-10T22:52:13.267Z,70.10
2018-04-10T22:54:45.581Z,70.50
2018-04-10T22:57:17.992Z,70.80
2018-04-10T22:59:51.288Z,70.70
2018-04-10T23:02:23.659Z,70.60
2018-04-10T23:04:56.099Z,70.30
2018-04-10T23:07:28.452Z,69.70
2018-04-10T23:10:01.114Z,70.40
2018-04-10T23:12:34.458Z,68.80
2018-04-10T23:15:07.037Z,68.80
2018-04-10T23:17:40.145Z,68.90
2018-04-10T23:20:12.541Z,68.90
2018-04-10T23:22:44.965Z,68.40
2018-04-10T23:25:17.328Z,68.40
2018-04-10T23:27:49.717Z,68.50
2018-04-10T23:30:22.312Z,68.60
2018-04-10T23:32:55.396Z,69.10
2018-04-10T23:35:27.943Z,69.10
2018-04-10T23:38:00.375Z,68.70
2018-04-10T23:40:32.753Z,68.50
2018-04-10T23:43:05.197Z,68.30
2018-04-10T23:45:37.547Z,68.30
2018-04-10T23:48:09.975Z,68.00
2018-04-10T23:50:42.282Z,68.30
2018-04-10T23:53:14.691Z,68.50
2018-04-10T23:55:47.908Z,68.40
2018-04-10T23:58:20.307Z,68.40
